This is the latest recevied weather packets stored in our database for station/object OM3WYM-13. If no packets are shown the sender has not sent any weather packets the latest 10 day(s).
| Time | Temp. | Humidity | Pressure | Rain* | Wind** | Luminosity | Snow |
|---|---|---|---|---|---|---|---|
| 1777642207 | 16.11° C | 33% | 1024.2 hPa | - | - | - | - |
| 1777641607 | 16.11° C | 32% | 1024 hPa | - | - | - | - |
| 1777641007 | 16.11° C | 32% | 1024.1 hPa | - | - | - | - |
| 1777638007 | 18.33° C | 30% | 1024.1 hPa | - | - | - | - |
| 1777635607 | 15.56° C | 33% | 1024.7 hPa | - | - | - | - |
| 1777635007 | 16.11° C | 33% | 1024.7 hPa | - | - | - | - |
| 1777634407 | 16.11° C | 33% | 1024.7 hPa | - | - | - | - |
| 1777633807 | 15.56° C | 33% | 1024.7 hPa | - | - | - | - |
| 1777633207 | 15° C | 33% | 1025.1 hPa | - | - | - | - |
| 1777632007 | 15° C | 32% | 1025.2 hPa | - | - | - | - |
| 1777631407 | 14.44° C | 32% | 1025.3 hPa | - | - | - | - |
| 1777630807 | 13.89° C | 31% | 1025.4 hPa | - | - | - | - |
| 1777630207 | 13.89° C | 30% | 1025.5 hPa | - | - | - | - |
| 1777629607 | 13.89° C | 30% | 1025.6 hPa | - | - | - | - |
| 1777629007 | 13.33° C | 29% | 1025.8 hPa | - | - | - | - |
| 1777628407 | 13.33° C | 30% | 1025.9 hPa | - | - | - | - |
| 1777627807 | 12.78° C | 31% | 1026.1 hPa | - | - | - | - |
| 1777627207 | 12.22° C | 32% | 1026.3 hPa | - | - | - | - |
| 1777626607 | 11.67° C | 32% | 1026.4 hPa | - | - | - | - |
| 1777626007 | 11.67° C | 34% | 1026.6 hPa | - | - | - | - |
| 1777625407 | 11.67° C | 34% | 1026.6 hPa | - | - | - | - |
| 1777624807 | 11.11° C | 34% | 1026.8 hPa | - | - | - | - |
| 1777624207 | 11.11° C | 36% | 1026.8 hPa | - | - | - | - |
| 1777623607 | 10.56° C | 37% | 1027 hPa | - | - | - | - |
| 1777623007 | 10° C | 38% | 1027.3 hPa | - | - | - | - |
* Rain since midnight (hover to see other rain measurements)
** Current wind speed in m/s (hover to see current wind gust speed)